createdAt,value
2022-11-05T00:01:41.372Z,24
2022-11-05T00:07:00.079Z,24
2022-11-05T00:12:18.554Z,24
2022-11-05T00:17:37.058Z,24.1
2022-11-05T00:22:55.787Z,24
2022-11-05T00:28:14.572Z,24
2022-11-05T00:33:33.381Z,24
2022-11-05T00:38:52.129Z,24
2022-11-05T00:44:10.615Z,24
2022-11-05T00:49:29.426Z,24
2022-11-05T00:54:47.609Z,24
2022-11-05T01:00:06.391Z,24
2022-11-05T01:05:24.909Z,24
2022-11-05T01:10:43.665Z,24
2022-11-05T01:16:02.438Z,24
2022-11-05T01:21:21.325Z,24
2022-11-05T01:26:40.073Z,24
2022-11-05T01:31:58.860Z,24
2022-11-05T01:37:17.648Z,24
2022-11-05T01:42:36.123Z,24
2022-11-05T01:47:54.891Z,24
2022-11-05T01:53:14.278Z,24
2022-11-05T01:58:32.805Z,24
2022-11-05T02:03:51.575Z,24
2022-11-05T02:09:10.083Z,24
2022-11-05T02:14:28.551Z,24
2022-11-05T02:19:47.042Z,24
2022-11-05T02:25:05.643Z,24
2022-11-05T02:30:24.099Z,24
2022-11-05T02:35:42.587Z,24
2022-11-05T02:41:01.194Z,24
2022-11-05T02:46:19.711Z,24
2022-11-05T02:51:38.479Z,24
2022-11-05T02:56:57.380Z,24
2022-11-05T03:02:16.110Z,24
2022-11-05T03:07:34.560Z,24
2022-11-05T03:12:53.095Z,24
2022-11-05T03:18:11.983Z,24
2022-11-05T03:23:30.749Z,24
2022-11-05T03:28:49.289Z,24
2022-11-05T03:34:07.756Z,24
2022-11-05T03:39:26.528Z,24
2022-11-05T03:44:45.324Z,24
2022-11-05T03:49:47.903Z,24
2022-11-05T03:55:06.394Z,24
2022-11-05T04:00:24.616Z,24
2022-11-05T04:05:42.969Z,24
2022-11-05T04:11:01.732Z,24
2022-11-05T04:16:19.682Z,24
2022-11-05T04:21:37.600Z,24
2022-11-05T04:26:56.112Z,24
2022-11-05T04:32:14.694Z,24
2022-11-05T04:37:32.959Z,24
2022-11-05T04:42:51.723Z,24
2022-11-05T04:48:09.972Z,24
2022-11-05T04:53:28.144Z,24
2022-11-05T04:58:46.637Z,24
2022-11-05T05:04:05.155Z,24
2022-11-05T05:09:23.345Z,24
2022-11-05T05:14:42.117Z,24
2022-11-05T05:20:01.173Z,24
2022-11-05T05:25:19.082Z,24
2022-11-05T05:30:37.291Z,24
2022-11-05T05:35:55.893Z,24
2022-11-05T05:41:13.799Z,24
2022-11-05T05:46:32.560Z,24
2022-11-05T05:51:51.207Z,24.1
2022-11-05T05:57:09.611Z,24.1
2022-11-05T06:02:28.453Z,24.1
2022-11-05T06:07:47.358Z,24.1
2022-11-05T06:13:05.555Z,24.1
2022-11-05T06:18:24.022Z,24.1
2022-11-05T06:23:42.559Z,24.1
2022-11-05T06:29:01.237Z,24.1
2022-11-05T06:34:19.447Z,24.2
2022-11-05T06:39:37.789Z,24.2
2022-11-05T06:44:55.965Z,24.2
2022-11-05T06:50:13.890Z,24.2
2022-11-05T06:55:32.777Z,24.2
2022-11-05T07:00:51.304Z,24.3
2022-11-05T07:06:09.789Z,24.3
2022-11-05T07:11:28.429Z,24.3
2022-11-05T07:16:46.623Z,24.3
2022-11-05T07:22:04.543Z,24.3
2022-11-05T07:27:23.339Z,24.4
2022-11-05T07:32:41.897Z,24.4
2022-11-05T07:38:02.585Z,24.5
2022-11-05T07:43:22.984Z,24.5
2022-11-05T07:48:41.426Z,24.5
2022-11-05T07:53:59.606Z,24.6
2022-11-05T07:59:18.119Z,24.6
2022-11-05T08:04:36.963Z,24.7
2022-11-05T08:09:55.720Z,24.7
2022-11-05T08:15:14.309Z,24.8
2022-11-05T08:20:32.756Z,24.8
2022-11-05T08:25:51.532Z,24.8
2022-11-05T08:30:54.135Z,24.9
2022-11-05T08:36:12.599Z,24.9
2022-11-05T08:41:31.110Z,25
2022-11-05T08:46:49.600Z,25
2022-11-05T08:52:08.062Z,24.9
2022-11-05T08:57:26.567Z,24.9
2022-11-05T09:02:45.290Z,24.5
2022-11-05T09:08:03.943Z,24.6
2022-11-05T09:13:23.352Z,24.6
2022-11-05T09:18:42.440Z,24.5
2022-11-05T09:24:01.155Z,24.5
2022-11-05T09:29:19.599Z,24.6
2022-11-05T09:34:38.387Z,24.5
2022-11-05T09:39:56.847Z,24.5
2022-11-05T09:45:15.601Z,24.5
2022-11-05T09:50:34.161Z,24.5
2022-11-05T09:55:52.796Z,24.5
2022-11-05T10:01:11.287Z,24.5
2022-11-05T10:06:30.133Z,24.5
2022-11-05T10:11:48.598Z,24.5
2022-11-05T10:17:07.350Z,24.5
2022-11-05T10:22:25.994Z,24.5
2022-11-05T10:27:44.182Z,24.5
2022-11-05T10:33:02.667Z,24.5
2022-11-05T10:38:21.120Z,24.5
2022-11-05T10:43:39.648Z,24.5
2022-11-05T10:48:58.418Z,24.5
2022-11-05T10:54:17.343Z,24.5
2022-11-05T10:59:36.149Z,24.5
2022-11-05T11:04:54.899Z,24.5
2022-11-05T11:10:13.686Z,24.5
2022-11-05T11:15:32.437Z,24.2
2022-11-05T11:20:51.183Z,24.1
2022-11-05T11:26:09.985Z,24.3
2022-11-05T11:31:28.705Z,24.3
2022-11-05T11:36:47.449Z,24.4
2022-11-05T11:42:06.236Z,24.4
2022-11-05T11:47:24.708Z,24.4
2022-11-05T11:52:46.252Z,24.4
2022-11-05T11:58:04.795Z,24.4
2022-11-05T12:03:23.337Z,24.4
2022-11-05T12:08:47.647Z,24.4
2022-11-05T12:14:16.501Z,24.4
2022-11-05T12:19:35.236Z,24.3
2022-11-05T12:24:54.008Z,24.3
2022-11-05T12:30:12.720Z,24.2
2022-11-05T12:35:31.338Z,24.3
2022-11-05T12:40:49.814Z,24.3
2022-11-05T12:46:08.548Z,24.3
2022-11-05T12:51:27.001Z,24.3
2022-11-05T12:56:45.810Z,24.3
2022-11-05T13:02:04.673Z,24.3
2022-11-05T13:07:23.681Z,24.3
2022-11-05T13:12:42.448Z,24.2
2022-11-05T13:18:01.246Z,24.2
2022-11-05T13:23:20.056Z,24.2
2022-11-05T13:28:38.816Z,24.2
2022-11-05T13:33:57.715Z,24.2
2022-11-05T13:39:19.091Z,24.2
2022-11-05T13:44:37.811Z,24.2
2022-11-05T13:49:56.595Z,24.2
2022-11-05T13:55:15.339Z,24.2
2022-11-05T14:00:34.254Z,24.2
2022-11-05T14:05:53.048Z,24.2
2022-11-05T14:11:11.500Z,24.2
2022-11-05T14:16:30.270Z,24.2
2022-11-05T14:21:49.047Z,24.2
2022-11-05T14:27:07.772Z,24.2
2022-11-05T14:32:26.526Z,24.2
2022-11-05T14:37:45.320Z,24.2
2022-11-05T14:43:04.042Z,24.2
2022-11-05T14:48:22.812Z,24.2
2022-11-05T14:53:41.616Z,24.2
2022-11-05T14:59:00.344Z,24.2
2022-11-05T15:04:03.348Z,24.1
2022-11-05T15:09:22.305Z,24.1
2022-11-05T15:14:41.058Z,24.1
2022-11-05T15:19:59.826Z,24.1
2022-11-05T15:25:18.614Z,24.1
2022-11-05T15:30:37.473Z,24.1
2022-11-05T15:35:56.206Z,24.2
2022-11-05T15:41:15.037Z,24.2
2022-11-05T15:46:33.778Z,24.2
2022-11-05T15:51:52.557Z,24.2
2022-11-05T15:57:11.465Z,24.2
2022-11-05T16:02:30.640Z,24.3
2022-11-05T16:07:49.686Z,24.3
2022-11-05T16:13:08.179Z,24.3
2022-11-05T16:18:26.204Z,24.3
2022-11-05T16:23:44.400Z,24.3
2022-11-05T16:29:02.905Z,24.3
2022-11-05T16:34:21.373Z,24.3
2022-11-05T16:39:40.109Z,24.3
2022-11-05T16:44:58.596Z,24.3
2022-11-05T16:50:16.574Z,24.3
2022-11-05T16:55:36.730Z,24.3
2022-11-05T17:00:55.309Z,24.2
2022-11-05T17:06:13.755Z,24.2
2022-11-05T17:11:32.496Z,24.2
2022-11-05T17:16:51.277Z,24.2
2022-11-05T17:22:09.759Z,24.2
2022-11-05T17:27:28.506Z,24.2
2022-11-05T17:32:47.616Z,24.1
2022-11-05T17:38:06.580Z,24.2
2022-11-05T17:43:25.338Z,24.1
2022-11-05T17:48:43.839Z,24.1
2022-11-05T17:54:02.294Z,24.1
2022-11-05T17:59:21.060Z,24.1
2022-11-05T18:04:39.538Z,24.1
2022-11-05T18:09:58.258Z,24.1
2022-11-05T18:15:17.025Z,24
2022-11-05T18:20:35.627Z,24
2022-11-05T18:25:54.358Z,24
2022-11-05T18:31:18.658Z,24
2022-11-05T18:36:37.366Z,24
2022-11-05T18:41:55.602Z,24
2022-11-05T18:47:13.821Z,24
2022-11-05T18:52:32.349Z,24
2022-11-05T18:57:51.069Z,23.7
2022-11-05T19:03:09.573Z,23.8
2022-11-05T19:08:28.419Z,23.9
2022-11-05T19:13:46.855Z,23.9
2022-11-05T19:19:05.593Z,23.9
2022-11-05T19:24:24.408Z,23.9
2022-11-05T19:29:42.429Z,23.9
2022-11-05T19:35:00.938Z,23.9
2022-11-05T19:40:19.721Z,23.9
2022-11-05T19:45:45.586Z,23.9
2022-11-05T19:51:04.085Z,23.9
2022-11-05T19:56:23.030Z,23.9
2022-11-05T20:01:41.690Z,23.9
2022-11-05T20:07:00.581Z,23.9
2022-11-05T20:12:19.364Z,23.9
2022-11-05T20:17:38.118Z,23.9
2022-11-05T20:22:56.897Z,23.8
2022-11-05T20:27:59.786Z,23.8
2022-11-05T20:33:18.527Z,23.9
2022-11-05T20:38:37.011Z,23.9
2022-11-05T20:43:55.791Z,23.8
2022-11-05T20:49:14.653Z,23.9
2022-11-05T20:54:32.869Z,23.8
2022-11-05T20:59:51.249Z,23.8
2022-11-05T21:05:09.440Z,23.8
2022-11-05T21:10:27.922Z,23.8
2022-11-05T21:15:46.506Z,23.8
2022-11-05T21:21:04.955Z,23.8
2022-11-05T21:26:23.429Z,23.8
2022-11-05T21:31:41.995Z,23.8
2022-11-05T21:36:59.890Z,23.8
2022-11-05T21:42:17.827Z,23.8
2022-11-05T21:47:36.423Z,23.8
2022-11-05T21:52:54.882Z,23.8
2022-11-05T21:58:13.439Z,23.9
2022-11-05T22:03:32.603Z,23.8
2022-11-05T22:08:51.059Z,23.9
2022-11-05T22:14:09.844Z,23.8
2022-11-05T22:19:28.378Z,23.9
2022-11-05T22:24:46.669Z,23.9
2022-11-05T22:30:05.424Z,23.9
2022-11-05T22:35:24.202Z,23.9
2022-11-05T22:40:42.379Z,23.9
2022-11-05T22:46:01.116Z,23.9
2022-11-05T22:51:19.401Z,23.9
2022-11-05T22:56:38.086Z,23.9
2022-11-05T23:01:57.173Z,23.9
2022-11-05T23:07:16.345Z,23.9
2022-11-05T23:12:34.533Z,23.9
2022-11-05T23:17:53.024Z,23.9
2022-11-05T23:23:10.980Z,23.9
2022-11-05T23:28:29.525Z,23.9
2022-11-05T23:33:48.015Z,23.9
2022-11-05T23:39:06.353Z,23.9
2022-11-05T23:44:24.811Z,23.9
2022-11-05T23:49:43.295Z,23.9
2022-11-05T23:55:01.813Z,23.9
